sensor_id;sensor_type;location;lat;lon;timestamp;P1;durP1;ratioP1;P2;durP2;ratioP2
66628;SDS011;53532;53.084;6.352;2022-12-18T00:00:54;184.17;;;57.67;;
66628;SDS011;53532;53.084;6.352;2022-12-18T00:03:21;172.57;;;57.13;;
66628;SDS011;53532;53.084;6.352;2022-12-18T00:05:48;181.33;;;57.93;;
66628;SDS011;53532;53.084;6.352;2022-12-18T00:08:15;167.50;;;57.67;;
66628;SDS011;53532;53.084;6.352;2022-12-18T00:10:41;163.70;;;56.80;;
66628;SDS011;53532;53.084;6.352;2022-12-18T00:13:07;173.93;;;58.37;;
66628;SDS011;53532;53.084;6.352;2022-12-18T00:15:33;173.47;;;58.57;;
66628;SDS011;53532;53.084;6.352;2022-12-18T00:18:00;155.30;;;54.67;;
66628;SDS011;53532;53.084;6.352;2022-12-18T00:20:26;158.97;;;54.80;;
66628;SDS011;53532;53.084;6.352;2022-12-18T00:22:53;161.47;;;57.57;;
66628;SDS011;53532;53.084;6.352;2022-12-18T00:25:20;170.90;;;59.23;;
66628;SDS011;53532;53.084;6.352;2022-12-18T00:27:46;160.57;;;54.83;;
66628;SDS011;53532;53.084;6.352;2022-12-18T00:30:12;151.33;;;54.30;;
66628;SDS011;53532;53.084;6.352;2022-12-18T00:32:39;149.37;;;54.20;;
66628;SDS011;53532;53.084;6.352;2022-12-18T00:35:05;140.93;;;53.23;;
66628;SDS011;53532;53.084;6.352;2022-12-18T00:37:32;147.83;;;53.73;;
66628;SDS011;53532;53.084;6.352;2022-12-18T00:40:00;144.30;;;52.90;;
66628;SDS011;53532;53.084;6.352;2022-12-18T00:42:26;149.93;;;55.63;;
66628;SDS011;53532;53.084;6.352;2022-12-18T00:45:11;147.30;;;53.53;;
66628;SDS011;53532;53.084;6.352;2022-12-18T00:47:38;156.07;;;55.47;;
66628;SDS011;53532;53.084;6.352;2022-12-18T00:50:04;154.33;;;54.97;;
66628;SDS011;53532;53.084;6.352;2022-12-18T00:52:31;159.53;;;57.43;;
66628;SDS011;53532;53.084;6.352;2022-12-18T00:54:57;161.63;;;56.97;;
66628;SDS011;53532;53.084;6.352;2022-12-18T00:57:24;160.77;;;56.73;;
66628;SDS011;53532;53.084;6.352;2022-12-18T00:59:50;165.43;;;57.27;;
66628;SDS011;53532;53.084;6.352;2022-12-18T01:02:16;166.50;;;55.33;;
66628;SDS011;53532;53.084;6.352;2022-12-18T01:04:43;152.07;;;54.70;;
66628;SDS011;53532;53.084;6.352;2022-12-18T01:07:09;164.07;;;55.00;;
66628;SDS011;53532;53.084;6.352;2022-12-18T01:09:35;154.33;;;55.23;;
66628;SDS011;53532;53.084;6.352;2022-12-18T01:12:01;167.80;;;55.13;;
66628;SDS011;53532;53.084;6.352;2022-12-18T01:14:29;166.30;;;55.73;;
66628;SDS011;53532;53.084;6.352;2022-12-18T01:16:55;161.47;;;57.47;;
66628;SDS011;53532;53.084;6.352;2022-12-18T01:19:21;165.13;;;55.03;;
66628;SDS011;53532;53.084;6.352;2022-12-18T01:21:47;152.93;;;52.30;;
66628;SDS011;53532;53.084;6.352;2022-12-18T01:24:13;146.17;;;52.53;;
66628;SDS011;53532;53.084;6.352;2022-12-18T01:26:39;150.50;;;51.13;;
66628;SDS011;53532;53.084;6.352;2022-12-18T01:29:05;132.80;;;50.80;;
66628;SDS011;53532;53.084;6.352;2022-12-18T01:31:33;127.20;;;50.53;;
66628;SDS011;53532;53.084;6.352;2022-12-18T01:34:00;128.53;;;50.03;;
66628;SDS011;53532;53.084;6.352;2022-12-18T01:36:27;125.73;;;49.90;;
66628;SDS011;53532;53.084;6.352;2022-12-18T01:38:53;126.67;;;49.50;;
66628;SDS011;53532;53.084;6.352;2022-12-18T01:41:20;124.93;;;48.23;;
66628;SDS011;53532;53.084;6.352;2022-12-18T01:43:48;124.17;;;49.83;;
66628;SDS011;53532;53.084;6.352;2022-12-18T01:46:15;128.20;;;50.53;;
66628;SDS011;53532;53.084;6.352;2022-12-18T01:48:44;119.80;;;47.80;;
66628;SDS011;53532;53.084;6.352;2022-12-18T01:51:11;127.33;;;49.10;;
66628;SDS011;53532;53.084;6.352;2022-12-18T01:53:37;122.60;;;48.73;;
66628;SDS011;53532;53.084;6.352;2022-12-18T01:56:05;139.47;;;52.40;;
66628;SDS011;53532;53.084;6.352;2022-12-18T01:58:32;135.40;;;51.77;;
66628;SDS011;53532;53.084;6.352;2022-12-18T02:01:01;126.97;;;49.90;;
66628;SDS011;53532;53.084;6.352;2022-12-18T02:03:27;136.93;;;52.60;;
66628;SDS011;53532;53.084;6.352;2022-12-18T02:05:57;132.73;;;50.57;;
66628;SDS011;53532;53.084;6.352;2022-12-18T02:08:25;134.55;;;53.35;;
66628;SDS011;53532;53.084;6.352;2022-12-18T02:10:54;155.40;;;55.67;;
66628;SDS011;53532;53.084;6.352;2022-12-18T02:13:24;162.30;;;55.87;;
66628;SDS011;53532;53.084;6.352;2022-12-18T02:15:55;158.40;;;55.47;;
66628;SDS011;53532;53.084;6.352;2022-12-18T02:18:26;157.10;;;56.53;;
66628;SDS011;53532;53.084;6.352;2022-12-18T02:20:54;156.67;;;56.93;;
66628;SDS011;53532;53.084;6.352;2022-12-18T02:23:31;166.97;;;57.07;;
66628;SDS011;53532;53.084;6.352;2022-12-18T02:26:07;163.63;;;57.50;;
66628;SDS011;53532;53.084;6.352;2022-12-18T02:28:35;167.23;;;58.00;;
66628;SDS011;53532;53.084;6.352;2022-12-18T02:31:02;162.40;;;57.10;;
66628;SDS011;53532;53.084;6.352;2022-12-18T02:33:30;166.10;;;56.90;;
66628;SDS011;53532;53.084;6.352;2022-12-18T02:35:57;150.77;;;56.07;;
66628;SDS011;53532;53.084;6.352;2022-12-18T02:38:24;182.27;;;59.13;;
66628;SDS011;53532;53.084;6.352;2022-12-18T02:40:50;173.80;;;58.30;;
66628;SDS011;53532;53.084;6.352;2022-12-18T02:43:20;174.43;;;58.93;;
66628;SDS011;53532;53.084;6.352;2022-12-18T02:45:46;174.70;;;60.57;;
66628;SDS011;53532;53.084;6.352;2022-12-18T02:48:13;171.20;;;62.47;;
66628;SDS011;53532;53.084;6.352;2022-12-18T02:50:41;166.33;;;62.97;;
66628;SDS011;53532;53.084;6.352;2022-12-18T02:53:12;178.23;;;64.43;;
66628;SDS011;53532;53.084;6.352;2022-12-18T02:55:45;173.00;;;65.57;;
66628;SDS011;53532;53.084;6.352;2022-12-18T02:58:16;171.87;;;66.60;;
66628;SDS011;53532;53.084;6.352;2022-12-18T03:00:47;163.60;;;64.97;;
66628;SDS011;53532;53.084;6.352;2022-12-18T03:03:14;162.05;;;64.70;;
66628;SDS011;53532;53.084;6.352;2022-12-18T03:05:43;157.10;;;62.93;;
66628;SDS011;53532;53.084;6.352;2022-12-18T03:08:12;152.17;;;64.33;;
66628;SDS011;53532;53.084;6.352;2022-12-18T03:10:39;159.07;;;63.50;;
66628;SDS011;53532;53.084;6.352;2022-12-18T03:13:08;152.43;;;62.97;;
66628;SDS011;53532;53.084;6.352;2022-12-18T03:15:37;156.57;;;62.13;;
66628;SDS011;53532;53.084;6.352;2022-12-18T03:18:06;143.07;;;60.00;;
66628;SDS011;53532;53.084;6.352;2022-12-18T03:20:34;145.80;;;60.13;;
66628;SDS011;53532;53.084;6.352;2022-12-18T03:23:02;138.97;;;60.83;;
66628;SDS011;53532;53.084;6.352;2022-12-18T03:25:30;143.90;;;59.47;;
66628;SDS011;53532;53.084;6.352;2022-12-18T03:27:58;145.73;;;59.37;;
66628;SDS011;53532;53.084;6.352;2022-12-18T03:30:24;133.77;;;58.03;;
66628;SDS011;53532;53.084;6.352;2022-12-18T03:32:53;140.20;;;57.73;;
66628;SDS011;53532;53.084;6.352;2022-12-18T03:35:23;142.43;;;58.30;;
66628;SDS011;53532;53.084;6.352;2022-12-18T03:37:51;131.38;;;56.63;;
66628;SDS011;53532;53.084;6.352;2022-12-18T03:40:17;132.20;;;56.13;;
66628;SDS011;53532;53.084;6.352;2022-12-18T03:42:46;137.70;;;58.00;;
66628;SDS011;53532;53.084;6.352;2022-12-18T03:45:18;129.63;;;56.83;;
66628;SDS011;53532;53.084;6.352;2022-12-18T03:47:47;132.30;;;56.65;;
66628;SDS011;53532;53.084;6.352;2022-12-18T03:50:19;128.27;;;54.57;;
66628;SDS011;53532;53.084;6.352;2022-12-18T03:52:49;119.03;;;55.37;;
66628;SDS011;53532;53.084;6.352;2022-12-18T03:55:17;130.40;;;56.30;;
66628;SDS011;53532;53.084;6.352;2022-12-18T03:57:43;129.80;;;56.33;;
66628;SDS011;53532;53.084;6.352;2022-12-18T04:00:11;127.37;;;55.37;;
66628;SDS011;53532;53.084;6.352;2022-12-18T04:02:37;120.90;;;53.87;;
66628;SDS011;53532;53.084;6.352;2022-12-18T04:05:05;113.60;;;53.13;;
66628;SDS011;53532;53.084;6.352;2022-12-18T04:07:32;117.43;;;54.33;;
66628;SDS011;53532;53.084;6.352;2022-12-18T04:10:00;119.27;;;53.07;;
66628;SDS011;53532;53.084;6.352;2022-12-18T04:12:28;113.83;;;53.30;;
66628;SDS011;53532;53.084;6.352;2022-12-18T04:14:55;116.33;;;54.00;;
66628;SDS011;53532;53.084;6.352;2022-12-18T04:17:21;116.07;;;53.00;;
66628;SDS011;53532;53.084;6.352;2022-12-18T04:19:48;106.50;;;51.53;;
66628;SDS011;53532;53.084;6.352;2022-12-18T04:22:15;111.73;;;53.67;;
66628;SDS011;53532;53.084;6.352;2022-12-18T04:24:41;114.63;;;52.13;;
66628;SDS011;53532;53.084;6.352;2022-12-18T04:27:08;114.70;;;53.07;;
66628;SDS011;53532;53.084;6.352;2022-12-18T04:29:34;116.33;;;51.83;;
66628;SDS011;53532;53.084;6.352;2022-12-18T04:32:01;117.33;;;51.10;;
66628;SDS011;53532;53.084;6.352;2022-12-18T04:34:27;107.63;;;50.53;;
66628;SDS011;53532;53.084;6.352;2022-12-18T04:36:53;117.00;;;52.60;;
66628;SDS011;53532;53.084;6.352;2022-12-18T04:39:19;114.07;;;53.43;;
66628;SDS011;53532;53.084;6.352;2022-12-18T04:41:45;115.30;;;52.13;;
66628;SDS011;53532;53.084;6.352;2022-12-18T04:44:13;111.17;;;50.87;;
66628;SDS011;53532;53.084;6.352;2022-12-18T04:46:39;114.60;;;53.07;;
66628;SDS011;53532;53.084;6.352;2022-12-18T04:49:05;114.53;;;52.63;;
66628;SDS011;53532;53.084;6.352;2022-12-18T04:51:31;121.10;;;53.80;;
66628;SDS011;53532;53.084;6.352;2022-12-18T04:53:57;112.63;;;52.70;;
66628;SDS011;53532;53.084;6.352;2022-12-18T04:56:24;116.73;;;52.03;;
66628;SDS011;53532;53.084;6.352;2022-12-18T04:58:50;121.60;;;52.73;;
66628;SDS011;53532;53.084;6.352;2022-12-18T05:01:17;121.43;;;55.13;;
66628;SDS011;53532;53.084;6.352;2022-12-18T05:03:44;115.40;;;51.53;;
66628;SDS011;53532;53.084;6.352;2022-12-18T05:06:10;110.80;;;51.53;;
66628;SDS011;53532;53.084;6.352;2022-12-18T05:08:36;117.03;;;51.80;;
66628;SDS011;53532;53.084;6.352;2022-12-18T05:11:03;115.13;;;51.83;;
66628;SDS011;53532;53.084;6.352;2022-12-18T05:13:30;104.90;;;50.27;;
66628;SDS011;53532;53.084;6.352;2022-12-18T05:15:56;110.97;;;50.90;;
66628;SDS011;53532;53.084;6.352;2022-12-18T05:18:24;108.30;;;50.40;;
66628;SDS011;53532;53.084;6.352;2022-12-18T05:20:50;108.00;;;51.23;;
66628;SDS011;53532;53.084;6.352;2022-12-18T05:23:17;107.40;;;49.73;;
66628;SDS011;53532;53.084;6.352;2022-12-18T05:25:46;114.70;;;50.67;;
66628;SDS011;53532;53.084;6.352;2022-12-18T05:28:12;107.93;;;51.03;;
66628;SDS011;53532;53.084;6.352;2022-12-18T05:30:38;104.27;;;48.97;;
66628;SDS011;53532;53.084;6.352;2022-12-18T05:33:07;107.27;;;50.33;;
66628;SDS011;53532;53.084;6.352;2022-12-18T05:35:34;123.03;;;50.70;;
66628;SDS011;53532;53.084;6.352;2022-12-18T05:38:00;104.50;;;48.53;;
66628;SDS011;53532;53.084;6.352;2022-12-18T05:40:26;106.27;;;50.07;;
66628;SDS011;53532;53.084;6.352;2022-12-18T05:42:53;109.33;;;49.67;;
66628;SDS011;53532;53.084;6.352;2022-12-18T05:45:19;106.10;;;50.03;;
66628;SDS011;53532;53.084;6.352;2022-12-18T05:47:45;117.67;;;50.33;;
66628;SDS011;53532;53.084;6.352;2022-12-18T05:50:11;113.13;;;52.30;;
66628;SDS011;53532;53.084;6.352;2022-12-18T05:52:39;113.10;;;50.53;;
66628;SDS011;53532;53.084;6.352;2022-12-18T05:55:05;109.20;;;50.80;;
66628;SDS011;53532;53.084;6.352;2022-12-18T05:57:31;109.00;;;48.57;;
66628;SDS011;53532;53.084;6.352;2022-12-18T05:59:57;111.33;;;50.17;;
66628;SDS011;53532;53.084;6.352;2022-12-18T06:02:23;99.70;;;48.07;;
66628;SDS011;53532;53.084;6.352;2022-12-18T06:04:49;103.53;;;49.47;;
66628;SDS011;53532;53.084;6.352;2022-12-18T06:07:16;111.57;;;50.47;;
66628;SDS011;53532;53.084;6.352;2022-12-18T06:09:43;107.63;;;50.47;;
66628;SDS011;53532;53.084;6.352;2022-12-18T06:12:09;110.20;;;49.23;;
66628;SDS011;53532;53.084;6.352;2022-12-18T06:14:36;108.87;;;50.83;;
66628;SDS011;53532;53.084;6.352;2022-12-18T06:17:02;109.97;;;50.33;;
66628;SDS011;53532;53.084;6.352;2022-12-18T06:19:28;106.17;;;50.27;;
66628;SDS011;53532;53.084;6.352;2022-12-18T06:21:54;107.07;;;49.03;;
66628;SDS011;53532;53.084;6.352;2022-12-18T06:24:22;110.60;;;50.23;;
66628;SDS011;53532;53.084;6.352;2022-12-18T06:26:50;108.57;;;48.70;;
66628;SDS011;53532;53.084;6.352;2022-12-18T06:29:16;101.83;;;47.90;;
66628;SDS011;53532;53.084;6.352;2022-12-18T06:31:42;107.00;;;49.97;;
66628;SDS011;53532;53.084;6.352;2022-12-18T06:34:08;100.60;;;47.23;;
66628;SDS011;53532;53.084;6.352;2022-12-18T06:36:34;105.67;;;50.03;;
66628;SDS011;53532;53.084;6.352;2022-12-18T06:39:01;99.77;;;48.43;;
66628;SDS011;53532;53.084;6.352;2022-12-18T06:41:27;103.17;;;49.50;;
66628;SDS011;53532;53.084;6.352;2022-12-18T06:43:54;111.87;;;50.70;;
66628;SDS011;53532;53.084;6.352;2022-12-18T06:46:20;99.73;;;49.40;;
66628;SDS011;53532;53.084;6.352;2022-12-18T06:48:47;96.93;;;47.27;;
66628;SDS011;53532;53.084;6.352;2022-12-18T06:51:15;101.77;;;46.33;;
66628;SDS011;53532;53.084;6.352;2022-12-18T06:53:41;86.73;;;45.27;;
66628;SDS011;53532;53.084;6.352;2022-12-18T06:56:07;91.87;;;44.13;;
66628;SDS011;53532;53.084;6.352;2022-12-18T06:58:33;89.90;;;45.97;;
66628;SDS011;53532;53.084;6.352;2022-12-18T07:01:01;89.47;;;45.43;;
66628;SDS011;53532;53.084;6.352;2022-12-18T07:03:27;87.30;;;44.67;;
66628;SDS011;53532;53.084;6.352;2022-12-18T07:05:54;89.00;;;43.83;;
66628;SDS011;53532;53.084;6.352;2022-12-18T07:08:20;86.53;;;45.27;;
66628;SDS011;53532;53.084;6.352;2022-12-18T07:10:46;78.10;;;42.87;;
66628;SDS011;53532;53.084;6.352;2022-12-18T07:13:14;80.70;;;43.33;;
66628;SDS011;53532;53.084;6.352;2022-12-18T07:15:40;78.53;;;42.90;;
66628;SDS011;53532;53.084;6.352;2022-12-18T07:18:07;80.83;;;42.13;;
66628;SDS011;53532;53.084;6.352;2022-12-18T07:20:36;76.10;;;41.93;;
66628;SDS011;53532;53.084;6.352;2022-12-18T07:23:03;79.73;;;43.13;;
66628;SDS011;53532;53.084;6.352;2022-12-18T07:25:30;77.07;;;42.73;;
66628;SDS011;53532;53.084;6.352;2022-12-18T07:27:57;74.97;;;41.33;;
66628;SDS011;53532;53.084;6.352;2022-12-18T07:30:23;75.00;;;40.40;;
66628;SDS011;53532;53.084;6.352;2022-12-18T07:32:49;70.90;;;39.73;;
66628;SDS011;53532;53.084;6.352;2022-12-18T07:35:17;70.37;;;40.10;;
66628;SDS011;53532;53.084;6.352;2022-12-18T07:37:43;68.40;;;39.73;;
66628;SDS011;53532;53.084;6.352;2022-12-18T07:40:11;74.30;;;39.80;;
66628;SDS011;53532;53.084;6.352;2022-12-18T07:42:37;68.20;;;39.50;;
66628;SDS011;53532;53.084;6.352;2022-12-18T07:45:03;66.80;;;39.13;;
66628;SDS011;53532;53.084;6.352;2022-12-18T07:47:30;66.87;;;38.63;;
66628;SDS011;53532;53.084;6.352;2022-12-18T07:49:56;65.20;;;38.20;;
66628;SDS011;53532;53.084;6.352;2022-12-18T07:52:23;67.17;;;38.33;;
66628;SDS011;53532;53.084;6.352;2022-12-18T07:54:49;66.07;;;39.07;;
66628;SDS011;53532;53.084;6.352;2022-12-18T07:57:16;64.53;;;38.73;;
66628;SDS011;53532;53.084;6.352;2022-12-18T07:59:42;65.27;;;38.23;;
66628;SDS011;53532;53.084;6.352;2022-12-18T08:02:08;64.90;;;37.77;;
66628;SDS011;53532;53.084;6.352;2022-12-18T08:04:34;64.70;;;39.07;;
66628;SDS011;53532;53.084;6.352;2022-12-18T08:07:00;65.80;;;38.00;;
66628;SDS011;53532;53.084;6.352;2022-12-18T08:09:28;63.87;;;38.00;;
66628;SDS011;53532;53.084;6.352;2022-12-18T08:11:54;63.70;;;37.87;;
66628;SDS011;53532;53.084;6.352;2022-12-18T08:14:20;60.97;;;38.00;;
66628;SDS011;53532;53.084;6.352;2022-12-18T08:16:46;64.03;;;37.13;;
66628;SDS011;53532;53.084;6.352;2022-12-18T08:19:13;60.67;;;37.90;;
66628;SDS011;53532;53.084;6.352;2022-12-18T08:21:39;61.40;;;37.90;;
66628;SDS011;53532;53.084;6.352;2022-12-18T08:24:05;61.03;;;37.57;;
66628;SDS011;53532;53.084;6.352;2022-12-18T08:26:33;55.77;;;36.27;;
66628;SDS011;53532;53.084;6.352;2022-12-18T08:28:59;58.87;;;37.77;;
66628;SDS011;53532;53.084;6.352;2022-12-18T08:31:29;61.10;;;38.33;;
66628;SDS011;53532;53.084;6.352;2022-12-18T08:33:56;58.47;;;36.33;;
66628;SDS011;53532;53.084;6.352;2022-12-18T08:36:23;58.43;;;36.77;;
66628;SDS011;53532;53.084;6.352;2022-12-18T08:38:49;55.47;;;35.40;;
66628;SDS011;53532;53.084;6.352;2022-12-18T08:41:16;53.10;;;34.20;;
66628;SDS011;53532;53.084;6.352;2022-12-18T08:43:44;56.53;;;36.27;;
66628;SDS011;53532;53.084;6.352;2022-12-18T08:46:32;55.07;;;35.33;;
66628;SDS011;53532;53.084;6.352;2022-12-18T08:48:59;52.30;;;33.97;;
66628;SDS011;53532;53.084;6.352;2022-12-18T08:51:25;52.23;;;33.93;;
66628;SDS011;53532;53.084;6.352;2022-12-18T08:53:51;52.57;;;33.80;;
66628;SDS011;53532;53.084;6.352;2022-12-18T08:56:18;50.87;;;33.53;;
66628;SDS011;53532;53.084;6.352;2022-12-18T08:58:45;51.13;;;34.10;;
66628;SDS011;53532;53.084;6.352;2022-12-18T09:01:12;52.13;;;34.37;;
66628;SDS011;53532;53.084;6.352;2022-12-18T09:03:38;52.70;;;34.03;;
66628;SDS011;53532;53.084;6.352;2022-12-18T09:06:05;50.33;;;32.93;;
66628;SDS011;53532;53.084;6.352;2022-12-18T09:08:31;48.10;;;32.50;;
66628;SDS011;53532;53.084;6.352;2022-12-18T09:10:57;50.20;;;32.93;;
66628;SDS011;53532;53.084;6.352;2022-12-18T09:13:23;53.50;;;36.50;;
66628;SDS011;53532;53.084;6.352;2022-12-18T09:15:51;56.40;;;38.53;;
66628;SDS011;53532;53.084;6.352;2022-12-18T09:18:18;56.13;;;39.40;;
66628;SDS011;53532;53.084;6.352;2022-12-18T09:20:45;51.53;;;35.13;;
66628;SDS011;53532;53.084;6.352;2022-12-18T09:23:11;48.40;;;31.40;;
66628;SDS011;53532;53.084;6.352;2022-12-18T09:25:38;44.63;;;30.00;;
66628;SDS011;53532;53.084;6.352;2022-12-18T09:28:05;47.93;;;29.93;;
66628;SDS011;53532;53.084;6.352;2022-12-18T09:30:31;45.90;;;30.17;;
66628;SDS011;53532;53.084;6.352;2022-12-18T09:33:02;45.93;;;30.13;;
66628;SDS011;53532;53.084;6.352;2022-12-18T09:35:28;42.83;;;28.17;;
66628;SDS011;53532;53.084;6.352;2022-12-18T09:37:54;42.40;;;28.57;;
66628;SDS011;53532;53.084;6.352;2022-12-18T09:40:21;40.73;;;27.70;;
66628;SDS011;53532;53.084;6.352;2022-12-18T09:42:49;43.03;;;27.90;;
66628;SDS011;53532;53.084;6.352;2022-12-18T09:45:16;40.90;;;27.27;;
66628;SDS011;53532;53.084;6.352;2022-12-18T09:47:43;39.73;;;27.33;;
66628;SDS011;53532;53.084;6.352;2022-12-18T09:50:16;40.77;;;26.63;;
66628;SDS011;53532;53.084;6.352;2022-12-18T09:52:46;40.67;;;25.60;;
66628;SDS011;53532;53.084;6.352;2022-12-18T09:55:15;37.80;;;25.97;;
66628;SDS011;53532;53.084;6.352;2022-12-18T09:57:45;39.90;;;26.43;;
66628;SDS011;53532;53.084;6.352;2022-12-18T10:00:15;40.77;;;25.73;;
66628;SDS011;53532;53.084;6.352;2022-12-18T10:02:43;39.80;;;25.63;;
66628;SDS011;53532;53.084;6.352;2022-12-18T10:05:10;38.67;;;26.27;;
66628;SDS011;53532;53.084;6.352;2022-12-18T10:07:45;35.70;;;23.93;;
66628;SDS011;53532;53.084;6.352;2022-12-18T10:10:15;35.60;;;23.20;;
66628;SDS011;53532;53.084;6.352;2022-12-18T10:12:43;37.07;;;24.60;;
66628;SDS011;53532;53.084;6.352;2022-12-18T10:15:13;35.30;;;23.87;;
66628;SDS011;53532;53.084;6.352;2022-12-18T10:17:44;35.28;;;23.50;;
66628;SDS011;53532;53.084;6.352;2022-12-18T10:20:13;34.67;;;22.90;;
66628;SDS011;53532;53.084;6.352;2022-12-18T10:22:46;34.80;;;24.20;;
66628;SDS011;53532;53.084;6.352;2022-12-18T10:25:15;33.13;;;22.37;;
66628;SDS011;53532;53.084;6.352;2022-12-18T10:27:43;32.63;;;22.03;;
66628;SDS011;53532;53.084;6.352;2022-12-18T10:30:12;34.17;;;22.53;;
66628;SDS011;53532;53.084;6.352;2022-12-18T10:32:40;31.47;;;21.70;;
66628;SDS011;53532;53.084;6.352;2022-12-18T10:35:08;32.43;;;21.70;;
66628;SDS011;53532;53.084;6.352;2022-12-18T10:37:37;31.95;;;21.45;;
66628;SDS011;53532;53.084;6.352;2022-12-18T10:40:25;31.37;;;21.10;;
66628;SDS011;53532;53.084;6.352;2022-12-18T10:42:59;29.10;;;20.43;;
66628;SDS011;53532;53.084;6.352;2022-12-18T10:45:29;30.50;;;20.33;;
66628;SDS011;53532;53.084;6.352;2022-12-18T10:47:55;26.37;;;18.93;;
66628;SDS011;53532;53.084;6.352;2022-12-18T10:50:23;28.73;;;20.07;;
66628;SDS011;53532;53.084;6.352;2022-12-18T10:52:54;27.47;;;19.73;;
66628;SDS011;53532;53.084;6.352;2022-12-18T10:55:21;28.90;;;20.10;;
66628;SDS011;53532;53.084;6.352;2022-12-18T10:57:48;28.33;;;18.80;;
66628;SDS011;53532;53.084;6.352;2022-12-18T11:00:20;26.83;;;18.77;;
66628;SDS011;53532;53.084;6.352;2022-12-18T11:02:47;29.47;;;19.97;;
66628;SDS011;53532;53.084;6.352;2022-12-18T11:05:24;29.33;;;19.60;;
66628;SDS011;53532;53.084;6.352;2022-12-18T11:07:51;29.57;;;19.13;;
66628;SDS011;53532;53.084;6.352;2022-12-18T11:10:19;27.27;;;18.37;;
66628;SDS011;53532;53.084;6.352;2022-12-18T11:12:46;27.57;;;17.97;;
66628;SDS011;53532;53.084;6.352;2022-12-18T11:15:19;26.37;;;18.33;;
66628;SDS011;53532;53.084;6.352;2022-12-18T11:17:46;28.40;;;18.73;;
66628;SDS011;53532;53.084;6.352;2022-12-18T11:20:19;23.17;;;15.63;;
66628;SDS011;53532;53.084;6.352;2022-12-18T11:22:53;24.80;;;15.37;;
66628;SDS011;53532;53.084;6.352;2022-12-18T11:25:21;22.27;;;15.63;;
66628;SDS011;53532;53.084;6.352;2022-12-18T11:27:47;21.90;;;15.00;;
66628;SDS011;53532;53.084;6.352;2022-12-18T11:30:21;21.13;;;14.20;;
66628;SDS011;53532;53.084;6.352;2022-12-18T11:32:48;21.07;;;13.87;;
66628;SDS011;53532;53.084;6.352;2022-12-18T11:35:17;21.37;;;13.93;;
66628;SDS011;53532;53.084;6.352;2022-12-18T11:37:46;19.63;;;13.33;;
66628;SDS011;53532;53.084;6.352;2022-12-18T11:40:15;20.47;;;13.57;;
66628;SDS011;53532;53.084;6.352;2022-12-18T11:42:44;22.43;;;14.23;;
66628;SDS011;53532;53.084;6.352;2022-12-18T11:45:23;20.00;;;13.63;;
66628;SDS011;53532;53.084;6.352;2022-12-18T11:47:54;19.57;;;13.23;;
66628;SDS011;53532;53.084;6.352;2022-12-18T11:50:23;17.63;;;12.80;;
66628;SDS011;53532;53.084;6.352;2022-12-18T11:52:50;18.93;;;12.07;;
66628;SDS011;53532;53.084;6.352;2022-12-18T11:55:19;19.17;;;12.37;;
66628;SDS011;53532;53.084;6.352;2022-12-18T11:57:49;17.77;;;12.10;;
66628;SDS011;53532;53.084;6.352;2022-12-18T12:00:17;16.93;;;12.07;;
66628;SDS011;53532;53.084;6.352;2022-12-18T12:05:33;15.43;;;10.83;;
66628;SDS011;53532;53.084;6.352;2022-12-18T12:08:02;18.53;;;11.57;;
66628;SDS011;53532;53.084;6.352;2022-12-18T12:10:36;17.00;;;10.80;;
66628;SDS011;53532;53.084;6.352;2022-12-18T12:13:08;16.63;;;11.13;;
66628;SDS011;53532;53.084;6.352;2022-12-18T12:15:42;18.40;;;10.83;;
66628;SDS011;53532;53.084;6.352;2022-12-18T12:18:14;16.00;;;10.30;;
66628;SDS011;53532;53.084;6.352;2022-12-18T12:20:49;13.87;;;9.70;;
66628;SDS011;53532;53.084;6.352;2022-12-18T12:23:18;15.33;;;9.90;;
66628;SDS011;53532;53.084;6.352;2022-12-18T12:25:46;14.13;;;9.30;;
66628;SDS011;53532;53.084;6.352;2022-12-18T12:28:15;16.00;;;10.43;;
66628;SDS011;53532;53.084;6.352;2022-12-18T12:30:48;15.98;;;10.65;;
66628;SDS011;53532;53.084;6.352;2022-12-18T12:33:22;15.60;;;10.27;;
66628;SDS011;53532;53.084;6.352;2022-12-18T12:35:55;17.13;;;10.83;;
66628;SDS011;53532;53.084;6.352;2022-12-18T12:40:51;17.63;;;12.03;;
66628;SDS011;53532;53.084;6.352;2022-12-18T12:43:27;18.30;;;12.20;;
66628;SDS011;53532;53.084;6.352;2022-12-18T12:45:55;19.17;;;11.80;;
66628;SDS011;53532;53.084;6.352;2022-12-18T12:48:27;17.47;;;12.03;;
66628;SDS011;53532;53.084;6.352;2022-12-18T12:50:55;17.55;;;12.30;;
66628;SDS011;53532;53.084;6.352;2022-12-18T12:53:23;16.63;;;11.43;;
66628;SDS011;53532;53.084;6.352;2022-12-18T12:55:52;16.97;;;11.50;;
66628;SDS011;53532;53.084;6.352;2022-12-18T12:58:19;17.53;;;11.80;;
66628;SDS011;53532;53.084;6.352;2022-12-18T13:00:50;17.73;;;11.60;;
66628;SDS011;53532;53.084;6.352;2022-12-18T13:03:22;15.73;;;10.90;;
66628;SDS011;53532;53.084;6.352;2022-12-18T13:05:55;17.73;;;11.77;;
66628;SDS011;53532;53.084;6.352;2022-12-18T13:08:23;15.70;;;11.03;;
66628;SDS011;53532;53.084;6.352;2022-12-18T13:10:50;18.63;;;11.33;;
66628;SDS011;53532;53.084;6.352;2022-12-18T13:13:47;18.00;;;11.27;;
66628;SDS011;53532;53.084;6.352;2022-12-18T13:16:13;16.57;;;11.00;;
66628;SDS011;53532;53.084;6.352;2022-12-18T13:18:47;16.73;;;11.03;;
66628;SDS011;53532;53.084;6.352;2022-12-18T13:21:17;15.70;;;10.83;;
66628;SDS011;53532;53.084;6.352;2022-12-18T13:23:45;16.35;;;10.27;;
66628;SDS011;53532;53.084;6.352;2022-12-18T13:29:02;17.33;;;11.07;;
66628;SDS011;53532;53.084;6.352;2022-12-18T13:34:15;16.93;;;10.30;;
66628;SDS011;53532;53.084;6.352;2022-12-18T13:36:43;18.40;;;10.77;;
66628;SDS011;53532;53.084;6.352;2022-12-18T13:39:21;16.33;;;10.50;;
66628;SDS011;53532;53.084;6.352;2022-12-18T13:41:48;16.23;;;10.33;;
66628;SDS011;53532;53.084;6.352;2022-12-18T13:44:20;15.50;;;9.93;;
66628;SDS011;53532;53.084;6.352;2022-12-18T13:46:49;15.50;;;10.23;;
66628;SDS011;53532;53.084;6.352;2022-12-18T13:49:20;17.17;;;10.77;;
66628;SDS011;53532;53.084;6.352;2022-12-18T13:51:49;16.00;;;10.73;;
66628;SDS011;53532;53.084;6.352;2022-12-18T13:54:17;15.17;;;9.90;;
66628;SDS011;53532;53.084;6.352;2022-12-18T13:56:45;15.83;;;10.27;;
66628;SDS011;53532;53.084;6.352;2022-12-18T13:59:12;16.33;;;10.03;;
66628;SDS011;53532;53.084;6.352;2022-12-18T14:01:43;14.53;;;9.80;;
66628;SDS011;53532;53.084;6.352;2022-12-18T14:04:10;14.37;;;9.40;;
66628;SDS011;53532;53.084;6.352;2022-12-18T14:06:36;16.63;;;10.60;;
66628;SDS011;53532;53.084;6.352;2022-12-18T14:09:04;16.73;;;10.50;;
66628;SDS011;53532;53.084;6.352;2022-12-18T14:11:30;15.17;;;10.23;;
66628;SDS011;53532;53.084;6.352;2022-12-18T14:13:57;14.30;;;9.57;;
66628;SDS011;53532;53.084;6.352;2022-12-18T14:16:24;15.97;;;10.30;;
66628;SDS011;53532;53.084;6.352;2022-12-18T14:18:52;15.03;;;9.47;;
66628;SDS011;53532;53.084;6.352;2022-12-18T14:21:21;16.20;;;9.70;;
66628;SDS011;53532;53.084;6.352;2022-12-18T14:23:47;15.37;;;10.10;;
66628;SDS011;53532;53.084;6.352;2022-12-18T14:26:22;14.73;;;10.00;;
66628;SDS011;53532;53.084;6.352;2022-12-18T14:28:49;15.33;;;9.97;;
66628;SDS011;53532;53.084;6.352;2022-12-18T14:31:18;13.87;;;9.70;;